Terminal Aerodrome Forecast
Issued by NWS

Current Version | Previous Version | Text Only | Print | Product List | Glossary On
Versions: 1 2 3 4 5 6 7 8 9 10 11 12 13 14
000
FTUS42 KMLB 212300
TAFTIX
TAF
KTIX 212326Z 2200/2224 10006KT P6SM SCT100 BKN250
     FM220200 VRB03KT P6SM FEW120 BKN250
     FM221500 07004KT P6SM SCT025 BKN250
     FM221800 09007KT P6SM VCTS SCT035CB SCT100 BKN250
      AMD NOT SKED 2201/2211=

USA.gov is the U.S. government's official web portal to all federal, state and local government web resources and services.